Time;durP1;ratioP1;P1;durP2;ratioP2;P2;SDS_P1;SDS_P2;PMS_P1;PMS_P2;Temp;Humidity;BMP_temperature;BMP_pressure;BME280_temperature;BME280_humidity;BME280_pressure;Samples;Min_cycle;Max_cycle;Signal;HPM_P1;HPM_P2
2024/02/09 00:00:07;;;;;;;29.80;17.85;;;;;;;8.01;49.45;94313.22;5048773;28;20033;-79
2024/02/09 00:02:35;;;;;;;37.75;20.02;;;;;;;8.04;49.68;94317.84;5048036;28;20035;-79
2024/02/09 00:05:02;;;;;;;29.17;18.48;;;;;;;8.01;49.75;94312.47;5030585;28;20029;-78
2024/02/09 00:07:27;;;;;;;30.77;17.33;;;;;;;8.01;49.81;94315.97;5046683;28;20021;-78
2024/02/09 00:09:53;;;;;;;28.85;16.88;;;;;;;7.91;49.84;94314.28;5048335;28;20029;-79
2024/02/09 00:12:20;;;;;;;36.47;17.15;;;;;;;7.89;49.81;94313.97;5048716;28;20397;-77
2024/02/09 00:14:47;;;;;;;28.10;15.80;;;;;;;7.82;49.97;94308.72;5046503;28;20079;-79
2024/02/09 00:17:13;;;;;;;28.70;16.52;;;;;;;7.81;49.93;94318.88;5048132;28;20056;-78
2024/02/09 00:19:39;;;;;;;27.90;15.82;;;;;;;7.80;50.13;94316.56;5047856;28;20027;-77
2024/02/09 00:22:05;;;;;;;28.10;15.57;;;;;;;7.76;50.02;94322.16;5046830;28;20025;-78
2024/02/09 00:24:31;;;;;;;23.95;14.13;;;;;;;7.71;50.41;94320.72;5047512;28;20029;-78
2024/02/09 00:27:00;;;;;;;23.77;13.40;;;;;;;7.71;50.45;94323.44;5046483;28;20082;-78
2024/02/09 00:29:28;;;;;;;23.60;13.45;;;;;;;7.77;50.57;94326.41;5048207;28;20099;-78
2024/02/09 00:31:53;;;;;;;29.70;13.32;;;;;;;7.76;50.07;94316.69;5047284;28;20399;-77
2024/02/09 00:34:19;;;;;;;23.83;14.15;;;;;;;7.83;49.92;94326.66;5046606;28;20082;-78
2024/02/09 00:36:48;;;;;;;26.15;13.95;;;;;;;7.74;50.18;94316.31;5029143;28;20036;-79
2024/02/09 00:39:14;;;;;;;23.15;13.82;;;;;;;7.79;50.22;94313.06;5046189;28;20035;-79
2024/02/09 00:41:40;;;;;;;24.73;13.10;;;;;;;7.77;50.37;94306.50;5046150;28;20032;-79
2024/02/09 00:44:05;;;;;;;21.35;12.35;;;;;;;7.75;50.12;94311.66;5045955;28;20033;-78
2024/02/09 00:46:32;;;;;;;25.20;13.50;;;;;;;7.77;49.63;94320.94;5046077;28;20067;-79
2024/02/09 00:49:03;;;;;;;22.70;12.13;;;;;;;7.66;50.18;94315.00;5045027;28;20475;-74
2024/02/09 00:51:31;;;;;;;21.73;12.57;;;;;;;7.58;50.59;94319.13;5047754;28;20561;-79
2024/02/09 00:53:57;;;;;;;20.48;12.23;;;;;;;7.47;50.88;94313.94;5045588;28;20029;-78
2024/02/09 00:56:23;;;;;;;21.33;12.25;;;;;;;7.43;50.60;94313.28;5045898;28;20028;-78
2024/02/09 00:58:49;;;;;;;20.33;12.05;;;;;;;7.45;50.67;94303.44;5047086;28;20044;-78
2024/02/09 01:01:14;;;;;;;21.10;12.65;;;;;;;7.43;50.51;94307.81;5047153;28;20491;-77
2024/02/09 01:03:40;;;;;;;19.35;13.38;;;;;;;7.43;50.78;94308.56;5047718;28;20043;-78
2024/02/09 01:06:06;;;;;;;22.00;12.65;;;;;;;7.38;51.29;94316.53;5045454;28;20029;-78
2024/02/09 01:08:32;;;;;;;19.85;11.57;;;;;;;7.32;51.18;94327.22;5047715;28;20033;-79
2024/02/09 01:10:57;;;;;;;20.50;11.70;;;;;;;7.33;50.85;94319.78;5046548;28;20488;-78
2024/02/09 02:46:24;;;;;;;25.42;12.60;;;;;;;5.91;53.65;94321.94;5044542;28;20025;-80
2024/02/09 03:05:26;;;;;;;19.48;12.48;;;;;;;5.68;54.81;94314.56;5044395;28;20071;-79
2024/02/09 03:07:53;;;;;;;19.55;12.68;;;;;;;5.77;54.59;94344.78;5043373;28;20024;-78
2024/02/09 03:10:19;;;;;;;25.15;12.48;;;;;;;5.76;54.85;94345.19;5044164;28;20055;-78
2024/02/09 03:12:44;;;;;;;24.08;12.98;;;;;;;5.69;54.30;94340.66;5047720;28;20029;-79
2024/02/09 03:15:10;;;;;;;19.92;12.63;;;;;;;5.68;54.49;94341.06;5049081;28;20388;-79
2024/02/09 03:17:37;;;;;;;21.42;12.52;;;;;;;5.67;54.96;94345.75;5049489;28;20029;-79
2024/02/09 03:20:04;;;;;;;22.25;12.93;;;;;;;5.71;55.61;94351.91;5030618;28;20414;-79
2024/02/09 03:22:31;;;;;;;23.33;13.50;;;;;;;5.70;54.40;94344.91;5031454;28;20089;-78
2024/02/09 03:25:02;;;;;;;22.35;13.70;;;;;;;5.63;54.06;94344.28;5030616;28;20470;-79
2024/02/09 03:27:33;;;;;;;17.92;12.18;;;;;;;5.58;53.88;94348.28;5049146;28;20122;-81
2024/02/09 03:29:59;;;;;;;22.65;11.77;;;;;;;5.52;53.97;94345.25;5047598;28;20017;-78
2024/02/09 03:32:27;;;;;;;23.17;13.52;;;;;;;5.48;54.16;94347.28;5030714;28;19970;-78
2024/02/09 03:34:52;;;;;;;24.48;14.05;;;;;;;5.42;54.38;94345.44;5031434;28;20035;-79
2024/02/09 03:37:20;;;;;;;23.50;12.82;;;;;;;5.39;55.14;94349.78;5048302;28;20103;-79
2024/02/09 03:39:46;;;;;;;23.15;12.80;;;;;;;5.47;55.93;94347.69;5049315;28;20450;-79
2024/02/09 03:42:11;;;;;;;23.52;14.65;;;;;;;5.46;55.14;94355.13;5048361;28;20113;-78
2024/02/09 03:44:37;;;;;;;21.02;11.68;;;;;;;5.41;54.51;94361.03;5048493;28;20104;-78
2024/02/09 03:47:03;;;;;;;24.08;13.80;;;;;;;5.35;55.34;94360.00;5046862;28;20032;-79
2024/02/09 03:49:28;;;;;;;22.85;13.77;;;;;;;5.35;56.05;94361.94;5047008;28;20065;-78
2024/02/09 03:51:54;;;;;;;22.13;13.02;;;;;;;5.30;55.03;94365.91;5048816;28;20033;-79
2024/02/09 03:54:19;;;;;;;20.52;12.65;;;;;;;5.29;55.47;94367.09;5048065;28;20029;-79
2024/02/09 03:56:44;;;;;;;25.00;13.48;;;;;;;5.26;55.42;94359.75;5049200;28;20025;-79
2024/02/09 03:59:10;;;;;;;20.77;13.52;;;;;;;5.26;55.11;94365.19;5029928;28;20041;-77
2024/02/09 04:01:35;;;;;;;21.90;11.88;;;;;;;5.33;54.85;94371.31;5047216;28;20035;-78
2024/02/09 04:04:00;;;;;;;26.17;14.35;;;;;;;5.27;55.09;94372.94;5047884;28;20064;-77
2024/02/09 04:06:29;;;;;;;21.80;12.98;;;;;;;5.29;55.95;94381.50;5046874;28;20033;-78
2024/02/09 04:08:56;;;;;;;20.75;12.27;;;;;;;5.26;55.67;94370.66;5048244;28;20086;-79
2024/02/09 04:11:22;;;;;;;22.25;13.48;;;;;;;5.22;55.90;94380.88;5046404;28;20428;-79
2024/02/09 04:13:49;;;;;;;23.75;13.05;;;;;;;5.19;55.76;94378.94;5047455;28;20025;-78
2024/02/09 04:16:18;;;;;;;22.58;12.68;;;;;;;5.22;56.05;94394.50;5046339;28;20067;-79
2024/02/09 04:18:44;;;;;;;20.88;12.75;;;;;;;5.21;56.17;94398.38;5046851;28;20025;-78
2024/02/09 04:21:10;;;;;;;21.42;14.32;;;;;;;5.19;56.02;94398.78;5048241;28;20040;-79
2024/02/09 04:23:36;;;;;;;23.75;13.48;;;;;;;5.13;56.28;94397.72;5045863;28;20024;-78
2024/02/09 04:26:02;;;;;;;24.10;14.25;;;;;;;5.10;56.45;94400.50;5046526;28;20045;-78
2024/02/09 04:28:28;;;;;;;26.85;15.07;;;;;;;5.09;56.47;94409.88;5046607;28;20056;-77
2024/02/09 04:30:53;;;;;;;22.58;13.57;;;;;;;5.03;56.49;94412.28;5048202;28;20061;-78
2024/02/09 04:33:18;;;;;;;21.70;14.32;;;;;;;5.07;56.21;94415.75;5047940;28;20403;-78
2024/02/09 04:35:44;;;;;;;23.20;14.13;;;;;;;5.01;56.54;94412.72;5029798;28;20457;-78
2024/02/09 04:38:09;;;;;;;21.10;14.18;;;;;;;4.98;56.50;94408.06;5046139;28;20134;-78
2024/02/09 04:40:35;;;;;;;23.48;14.50;;;;;;;5.07;56.10;94419.22;5047627;28;20033;-79
2024/02/09 04:43:00;;;;;;;23.70;14.15;;;;;;;5.07;56.13;94413.78;5045892;28;20163;-79
2024/02/09 04:45:26;;;;;;;22.20;14.98;;;;;;;5.10;55.62;94414.13;5045770;28;20032;-78
2024/02/09 04:47:52;;;;;;;25.67;15.27;;;;;;;5.05;56.26;94413.44;5029782;28;20029;-79
2024/02/09 04:50:19;;;;;;;28.55;15.43;;;;;;;5.02;56.20;94411.53;5047056;28;20045;-79
2024/02/09 04:52:46;;;;;;;29.90;15.50;;;;;;;4.94;56.59;94415.56;5047960;28;20024;-78
2024/02/09 04:55:11;;;;;;;22.67;15.90;;;;;;;4.90;56.34;94408.63;5047064;28;20074;-79
2024/02/09 04:57:36;;;;;;;29.55;16.27;;;;;;;4.86;56.47;94407.91;5047913;28;20025;-77
2024/02/09 05:00:03;;;;;;;23.73;14.02;;;;;;;4.89;56.98;94402.41;5045634;28;20056;-79
2024/02/09 05:02:33;;;;;;;25.48;16.50;;;;;;;4.92;57.49;94417.13;5045881;28;20037;-80
2024/02/09 05:04:59;;;;;;;29.63;17.73;;;;;;;4.99;56.80;94425.22;5029286;28;20029;-78
2024/02/09 05:07:24;;;;;;;21.80;13.48;;;;;;;5.03;57.13;94418.50;5045633;28;20036;-79
2024/02/09 05:09:50;;;;;;;26.85;16.50;;;;;;;4.99;57.01;94417.03;5046423;28;20308;-79
2024/02/09 05:12:15;;;;;;;27.45;16.00;;;;;;;4.96;57.10;94432.25;5028613;28;20029;-77
2024/02/09 05:14:40;;;;;;;21.63;14.25;;;;;;;4.94;56.73;94440.06;5047525;28;20183;-78
2024/02/09 05:17:06;;;;;;;26.52;15.43;;;;;;;4.91;58.61;94421.03;5046646;28;20471;-79
2024/02/09 05:19:31;;;;;;;26.63;15.85;;;;;;;4.91;58.59;94421.81;5047132;28;20028;-78
2024/02/09 05:21:57;;;;;;;23.40;15.85;;;;;;;4.92;58.18;94415.19;5046707;28;20076;-78
2024/02/09 05:24:26;;;;;;;24.42;15.02;;;;;;;4.96;58.86;94415.91;5045706;28;20033;-79
2024/02/09 05:26:52;;;;;;;25.20;15.93;;;;;;;4.92;57.92;94406.25;5029109;28;20470;-79
2024/02/09 05:29:17;;;;;;;28.70;16.63;;;;;;;4.91;58.09;94400.03;5045085;28;20025;-78
2024/02/09 05:31:44;;;;;;;28.20;16.10;;;;;;;4.94;58.50;94396.50;5047217;28;20021;-79
2024/02/09 05:34:10;;;;;;;25.45;15.27;;;;;;;4.86;58.78;94386.88;5046202;28;20036;-79
2024/02/09 05:36:36;;;;;;;31.27;17.42;;;;;;;4.98;59.17;94399.91;5045340;28;20163;-78
2024/02/09 05:39:02;;;;;;;30.42;17.23;;;;;;;5.00;59.21;94391.34;5046342;28;20032;-77
2024/02/09 05:41:28;;;;;;;30.08;16.88;;;;;;;4.91;59.61;94391.84;5028746;28;20029;-77
2024/02/09 05:43:56;;;;;;;26.42;15.35;;;;;;;4.83;60.24;94376.06;5045108;28;20029;-77
2024/02/09 05:46:21;;;;;;;23.00;15.32;;;;;;;4.87;59.63;94382.97;5045135;28;20036;-76
2024/02/09 05:48:49;;;;;;;25.08;16.40;;;;;;;4.91;59.17;94378.22;5045560;28;20021;-77
2024/02/09 05:51:18;;;;;;;34.80;17.77;;;;;;;4.97;58.09;94392.16;5044625;28;20183;-77
2024/02/09 05:53:46;;;;;;;32.90;18.27;;;;;;;4.94;58.38;94395.72;5045068;28;20162;-77
2024/02/09 05:56:21;;;;;;;29.20;18.90;;;;;;;4.99;57.84;94392.53;5044624;28;20025;-78
2024/02/09 05:58:54;;;;;;;35.55;20.92;;;;;;;4.97;57.94;94384.75;5046402;28;20512;-77
2024/02/09 06:01:20;;;;;;;35.50;20.75;;;;;;;4.96;57.84;94393.34;5046521;28;20033;-77
2024/02/09 06:03:46;;;;;;;29.05;18.75;;;;;;;5.00;58.67;94396.78;5044184;28;20036;-77
2024/02/09 06:06:12;;;;;;;30.48;19.63;;;;;;;4.97;58.24;94390.19;5045230;28;20074;-77
2024/02/09 06:08:40;;;;;;;32.17;19.45;;;;;;;5.00;58.33;94396.78;5027291;28;20025;-77
2024/02/09 06:11:07;;;;;;;29.55;19.25;;;;;;;5.05;58.11;94388.91;5046291;28;20037;-77
2024/02/09 06:13:33;;;;;;;26.67;19.27;;;;;;;5.00;58.05;94392.09;5044530;28;20082;-76
2024/02/09 06:15:58;;;;;;;36.80;20.40;;;;;;;5.10;57.90;94401.28;5044476;28;20063;-77
2024/02/09 06:18:26;;;;;;;35.47;20.50;;;;;;;5.13;57.83;94405.91;5044045;28;20025;-77
2024/02/09 06:20:53;;;;;;;36.58;21.33;;;;;;;5.16;57.86;94404.28;5044228;28;20125;-76
2024/02/09 06:23:18;;;;;;;30.90;20.48;;;;;;;5.19;57.69;94406.19;5045169;28;20064;-76
2024/02/09 06:25:44;;;;;;;41.92;22.20;;;;;;;5.23;57.61;94420.56;5045186;28;20025;-77
2024/02/09 06:28:09;;;;;;;33.35;20.90;;;;;;;5.27;57.48;94415.78;5046436;28;20504;-77
2024/02/09 06:30:35;;;;;;;41.40;22.42;;;;;;;5.22;57.42;94402.66;5043672;28;20021;-76
2024/02/09 06:33:01;;;;;;;39.08;24.02;;;;;;;5.35;57.69;94416.47;5045826;28;20499;-76
2024/02/09 06:35:27;;;;;;;35.40;22.05;;;;;;;5.26;57.42;94408.81;5044855;28;20492;-77
2024/02/09 06:37:52;;;;;;;35.70;21.73;;;;;;;5.38;57.30;94421.06;5045809;28;20117;-76
2024/02/09 06:40:19;;;;;;;36.58;21.52;;;;;;;5.42;57.15;94427.22;5045626;28;20041;-77
2024/02/09 06:42:44;;;;;;;39.42;22.15;;;;;;;5.39;57.03;94428.84;5044712;28;20108;-76
2024/02/09 06:45:14;;;;;;;37.13;21.50;;;;;;;5.43;57.25;94431.50;5043842;28;20021;-76
2024/02/09 06:47:39;;;;;;;33.30;20.00;;;;;;;5.41;57.17;94437.38;5044761;28;20029;-77
2024/02/09 06:50:05;;;;;;;36.83;21.08;;;;;;;5.51;56.90;94435.66;5044244;28;20266;-77
2024/02/09 06:52:31;;;;;;;34.90;21.00;;;;;;;5.53;56.64;94434.03;5043344;28;20418;-76
2024/02/09 06:54:57;;;;;;;35.17;21.17;;;;;;;5.63;56.22;94456.88;5044022;28;20040;-77
2024/02/09 06:57:23;;;;;;;38.78;23.45;;;;;;;5.67;56.09;94457.56;5045489;28;20028;-78
2024/02/09 06:59:48;;;;;;;40.42;23.20;;;;;;;5.67;55.86;94454.06;5043359;28;20036;-76
2024/02/09 07:02:16;;;;;;;40.10;24.38;;;;;;;5.73;55.74;94455.88;5044681;28;20025;-77
2024/02/09 07:04:41;;;;;;;39.58;24.52;;;;;;;5.80;55.56;94447.59;5044635;28;20491;-77
2024/02/09 07:07:08;;;;;;;43.63;26.33;;;;;;;5.86;55.47;94458.78;5045522;28;20031;-78
2024/02/09 07:09:33;;;;;;;41.30;26.35;;;;;;;5.97;55.46;94461.34;5044701;28;20032;-78
2024/02/09 07:12:03;;;;;;;44.25;24.23;;;;;;;6.04;55.05;94455.75;5044091;28;20033;-77
2024/02/09 07:14:30;;;;;;;33.08;22.02;;;;;;;6.05;55.03;94446.38;5044850;28;20036;-77
2024/02/09 07:16:55;;;;;;;34.13;22.38;;;;;;;6.19;55.02;94458.97;5043761;28;20032;-79
2024/02/09 07:19:22;;;;;;;34.90;19.85;;;;;;;6.29;54.93;94452.53;5045615;28;20025;-77
2024/02/09 07:21:47;;;;;;;29.02;18.60;;;;;;;6.38;54.83;94455.47;5026673;28;20033;-78
2024/02/09 07:24:13;;;;;;;25.73;17.45;;;;;;;6.53;54.25;94437.59;5045632;28;20025;-78
2024/02/09 07:26:38;;;;;;;25.92;16.58;;;;;;;6.60;54.28;94433.97;5044467;28;20111;-79
2024/02/09 07:29:04;;;;;;;26.73;18.25;;;;;;;6.76;53.94;94431.25;5045399;28;20411;-81
2024/02/09 07:31:30;;;;;;;26.50;15.75;;;;;;;6.81;53.60;94430.75;5044801;28;20443;-78
2024/02/09 07:33:55;;;;;;;26.73;16.15;;;;;;;6.98;53.56;94437.00;5043812;28;20040;-77
2024/02/09 07:36:21;;;;;;;31.35;16.98;;;;;;;7.13;53.08;94437.44;5045131;28;20107;-77
2024/02/09 07:38:47;;;;;;;29.85;16.05;;;;;;;7.27;52.98;94433.59;5044430;28;20086;-78
2024/02/09 07:41:16;;;;;;;35.17;15.57;;;;;;;7.39;52.79;94435.66;5027509;28;20033;-77
2024/02/09 07:43:42;;;;;;;25.20;14.63;;;;;;;7.52;51.77;94431.03;5042596;28;20105;-77
2024/02/09 07:46:08;;;;;;;25.65;14.07;;;;;;;7.70;51.82;94439.56;5043394;28;20124;-77
2024/02/09 07:48:33;;;;;;;28.42;16.08;;;;;;;7.83;51.68;94425.94;5042856;28;20078;-77
2024/02/09 07:50:59;;;;;;;27.38;15.23;;;;;;;8.03;51.33;94425.81;5044853;28;20132;-78
2024/02/09 07:53:24;;;;;;;26.50;15.07;;;;;;;8.32;50.63;94427.75;5043544;28;20056;-78
2024/02/09 07:55:50;;;;;;;28.95;15.02;;;;;;;8.54;50.33;94425.19;5044428;28;20436;-78
2024/02/09 07:58:16;;;;;;;22.38;13.57;;;;;;;8.85;49.51;94428.97;5047695;28;20483;-78
2024/02/09 08:00:42;;;;;;;25.20;14.25;;;;;;;9.04;48.75;94422.50;5046278;28;20599;-78
2024/02/09 08:03:08;;;;;;;27.58;14.00;;;;;;;9.26;48.29;94403.38;5047422;28;20025;-78
2024/02/09 08:05:35;;;;;;;21.83;13.27;;;;;;;9.61;47.51;94406.16;5047706;28;20025;-77
2024/02/09 08:08:00;;;;;;;23.52;12.30;;;;;;;10.06;45.96;94416.03;5048792;28;20079;-77
2024/02/09 08:10:25;;;;;;;20.75;12.40;;;;;;;10.48;45.27;94404.72;5048369;28;20025;-77
2024/02/09 08:12:51;;;;;;;19.70;10.50;;;;;;;10.61;44.47;94388.94;5030131;28;20108;-77
2024/02/09 08:15:16;;;;;;;18.08;10.82;;;;;;;11.13;43.50;94404.59;5047167;28;20499;-77
2024/02/09 08:17:48;;;;;;;18.30;11.40;;;;;;;11.75;42.73;94394.63;5045625;28;20021;-77
2024/02/09 08:20:14;;;;;;;23.55;11.80;;;;;;;12.18;41.89;94407.41;5046249;28;20052;-78
2024/02/09 08:22:44;;;;;;;23.52;12.32;;;;;;;12.99;40.29;94399.41;5047532;28;20021;-77
2024/02/09 08:25:12;;;;;;;16.85;11.70;;;;;;;13.94;38.57;94389.75;5048236;28;20078;-77
2024/02/09 08:27:38;;;;;;;23.08;11.73;;;;;;;15.30;35.87;94391.63;5029480;28;20029;-77
2024/02/09 08:30:06;;;;;;;15.93;10.18;;;;;;;16.69;33.55;94389.13;5046537;28;20032;-77
2024/02/09 08:32:33;;;;;;;16.35;9.95;;;;;;;17.82;31.09;94387.97;5048267;28;20033;-78
2024/02/09 08:34:58;;;;;;;16.33;10.48;;;;;;;17.91;30.23;94379.44;5047261;28;20078;-78
2024/02/09 08:37:29;;;;;;;20.10;10.35;;;;;;;17.87;30.60;94376.88;5046878;28;20017;-78
2024/02/09 08:39:58;;;;;;;16.02;10.48;;;;;;;18.60;29.16;94368.78;5045710;28;20032;-77
2024/02/09 08:42:23;;;;;;;18.50;11.40;;;;;;;19.91;27.35;94374.63;5046807;28;20111;-78
2024/02/09 08:44:49;;;;;;;18.08;10.70;;;;;;;20.84;25.83;94379.53;5046770;28;20108;-78
2024/02/09 08:47:14;;;;;;;17.77;11.10;;;;;;;21.77;24.32;94377.78;5029618;28;20024;-78
2024/02/09 08:49:40;;;;;;;18.20;11.02;;;;;;;22.21;23.74;94387.75;5046144;28;20120;-78
2024/02/09 08:52:05;;;;;;;19.38;11.75;;;;;;;22.75;23.47;94384.00;5047119;28;20122;-78
2024/02/09 08:54:32;;;;;;;24.35;12.38;;;;;;;23.59;22.23;94379.94;5046860;28;20084;-79
2024/02/09 08:56:59;;;;;;;20.50;11.35;;;;;;;24.13;21.43;94388.44;5045211;28;20029;-79
2024/02/09 08:59:25;;;;;;;16.83;10.20;;;;;;;24.74;20.83;94387.25;5047962;28;20028;-77
2024/02/09 09:01:50;;;;;;;18.13;11.05;;;;;;;25.27;20.09;94394.78;5046870;28;20082;-78
2024/02/09 09:04:16;;;;;;;19.02;10.40;;;;;;;25.45;19.73;94385.38;5046265;28;20021;-78
2024/02/09 09:06:41;;;;;;;19.10;11.93;;;;;;;26.17;19.03;94376.41;5045908;28;20126;-78
2024/02/09 09:09:08;;;;;;;15.80;10.98;;;;;;;25.85;19.00;94366.22;5045191;28;20024;-79
2024/02/09 09:11:34;;;;;;;14.85;10.77;;;;;;;25.41;19.70;94373.72;5046474;28;20025;-78
2024/02/09 09:14:00;;;;;;;18.80;11.07;;;;;;;26.06;19.12;94377.47;5012366;28;20040;-78
2024/02/09 09:16:26;;;;;;;21.88;11.70;;;;;;;26.16;18.89;94375.66;5047749;28;20100;-78
2024/02/09 09:18:51;;;;;;;18.75;11.52;;;;;;;26.73;18.31;94377.66;5045132;28;20079;-78
2024/02/09 09:21:17;;;;;;;21.52;11.63;;;;;;;27.06;18.09;94372.31;5045952;28;20025;-78
2024/02/09 09:23:42;;;;;;;19.05;11.05;;;;;;;28.04;17.40;94373.78;5046595;28;20470;-78
2024/02/09 09:26:08;;;;;;;18.10;10.90;;;;;;;28.26;17.22;94367.34;5045692;28;20028;-78
2024/02/09 09:28:34;;;;;;;17.02;10.30;;;;;;;28.31;17.02;94362.81;5047667;28;20025;-78
2024/02/09 09:31:00;;;;;;;16.10;9.93;;;;;;;28.10;17.39;94362.28;5046437;28;20024;-78
2024/02/09 09:33:25;;;;;;;18.30;11.18;;;;;;;28.06;17.26;94354.19;5046292;28;20021;-79
2024/02/09 09:35:52;;;;;;;22.80;11.80;;;;;;;28.07;17.01;94352.13;5044717;28;20476;-79
2024/02/09 09:38:18;;;;;;;20.73;10.80;;;;;;;28.79;16.48;94366.47;5045786;28;20028;-79
2024/02/09 09:40:48;;;;;;;22.05;10.70;;;;;;;29.05;16.61;94356.75;5044691;28;20123;-78
2024/02/09 09:43:17;;;;;;;19.77;11.18;;;;;;;29.88;15.82;94346.19;5046583;28;20025;-77
2024/02/09 09:45:43;;;;;;;16.67;10.32;;;;;;;30.59;15.07;94342.13;5044634;28;20111;-79
2024/02/09 09:48:14;;;;;;;19.48;10.93;;;;;;;30.56;14.91;94346.09;5044787;28;20025;-77
2024/02/09 09:50:41;;;;;;;22.83;11.40;;;;;;;30.81;15.17;94340.38;5045393;28;20132;-77
2024/02/09 09:53:14;;;;;;;22.17;10.88;;;;;;;31.28;14.32;94335.59;5044843;28;20029;-77
2024/02/09 09:55:41;;;;;;;21.88;10.93;;;;;;;31.57;14.06;94333.66;5028382;28;20094;-78
2024/02/09 09:58:06;;;;;;;17.25;11.68;;;;;;;31.61;14.45;94325.44;5044782;28;20452;-76
2024/02/09 10:00:33;;;;;;;15.98;10.98;;;;;;;31.46;14.43;94329.25;5045029;28;20044;-77
2024/02/09 10:02:58;;;;;;;15.45;10.68;;;;;;;31.41;14.22;94307.56;5044802;28;20040;-78
2024/02/09 10:05:24;;;;;;;19.90;10.68;;;;;;;31.62;14.00;94301.38;5044383;28;20056;-77
2024/02/09 10:07:50;;;;;;;15.40;10.68;;;;;;;31.52;14.17;94299.84;5045240;28;20078;-77
2024/02/09 10:10:15;;;;;;;17.60;10.52;;;;;;;31.86;13.70;94294.00;5045533;28;20033;-77
2024/02/09 10:12:41;;;;;;;23.52;10.98;;;;;;;32.04;13.55;94282.50;5044982;28;20142;-78
2024/02/09 10:15:07;;;;;;;19.33;10.40;;;;;;;32.32;13.83;94295.25;5045664;28;20039;-78
2024/02/09 10:17:32;;;;;;;17.85;10.20;;;;;;;32.63;13.28;94289.75;5046339;28;20021;-78
2024/02/09 10:19:59;;;;;;;17.73;10.00;;;;;;;32.18;13.35;94277.91;5043652;28;20021;-78
2024/02/09 10:22:26;;;;;;;18.48;10.52;;;;;;;31.06;14.15;94270.03;5044468;28;20025;-78
2024/02/09 10:24:51;;;;;;;17.60;10.50;;;;;;;29.85;15.14;94272.94;5046222;28;20241;-78
2024/02/09 10:27:17;;;;;;;17.13;10.10;;;;;;;28.62;16.31;94267.38;5044046;28;20017;-78
2024/02/09 10:29:43;;;;;;;16.05;10.20;;;;;;;27.98;16.85;94252.50;5046120;28;20547;-79
2024/02/09 10:32:08;;;;;;;16.40;9.90;;;;;;;27.56;17.15;94245.78;5043867;28;20082;-78
2024/02/09 10:34:35;;;;;;;20.30;10.70;;;;;;;27.15;17.59;94230.78;5044488;28;20025;-78
2024/02/09 10:37:03;;;;;;;20.27;10.18;;;;;;;26.98;18.09;94234.13;5043810;28;20025;-78
2024/02/09 10:39:31;;;;;;;17.70;8.88;;;;;;;26.33;18.16;94217.41;5044359;28;20028;-78
2024/02/09 10:42:02;;;;;;;16.63;9.02;;;;;;;25.67;18.88;94215.97;5044231;28;20020;-77
2024/02/09 10:44:32;;;;;;;15.57;9.75;;;;;;;24.80;19.68;94202.38;5043759;28;20017;-76
2024/02/09 10:46:58;;;;;;;17.20;9.15;;;;;;;24.60;19.87;94203.88;5044460;28;20021;-77
2024/02/09 10:49:25;;;;;;;16.45;9.02;;;;;;;24.59;20.21;94195.97;5027192;28;20128;-78
2024/02/09 10:51:51;;;;;;;20.63;9.70;;;;;;;24.55;20.35;94198.41;5044033;28;20024;-78
2024/02/09 10:54:23;;;;;;;17.25;8.80;;;;;;;24.36;20.42;94192.94;5043843;28;20032;-77
2024/02/09 10:56:51;;;;;;;15.68;9.07;;;;;;;24.28;20.59;94180.84;5043778;28;20487;-77
2024/02/09 10:59:17;;;;;;;15.88;9.15;;;;;;;23.30;21.49;94187.47;5027871;28;20036;-78
2024/02/09 11:01:44;;;;;;;14.43;8.55;;;;;;;22.88;21.89;94175.22;5043418;28;20033;-79
2024/02/09 11:04:09;;;;;;;13.25;9.05;;;;;;;23.43;21.35;94175.50;5045939;28;20051;-78
2024/02/09 11:06:35;;;;;;;15.52;8.68;;;;;;;24.42;20.32;94176.72;5027008;28;20539;-77
2024/02/09 11:09:01;;;;;;;20.17;8.57;;;;;;;24.74;20.14;94162.41;5044045;28;20557;-77
2024/02/09 11:11:27;;;;;;;13.23;8.35;;;;;;;24.85;20.02;94164.94;5043638;28;20045;-78
2024/02/09 11:14:13;;;;;;;14.70;8.13;;;;;;;23.90;20.87;94160.78;5045277;28;20029;-79
2024/02/09 11:16:43;;;;;;;14.35;7.82;;;;;;;23.67;21.23;94175.28;5044168;28;20044;-77
2024/02/09 11:19:16;;;;;;;15.38;6.95;;;;;;;23.86;20.68;94166.75;5043460;28;20025;-77
2024/02/09 11:21:48;;;;;;;13.20;6.47;;;;;;;24.46;20.13;94170.75;5044020;28;20542;-77
2024/02/09 11:24:16;;;;;;;12.25;6.15;;;;;;;24.57;20.06;94171.25;5043537;28;20083;-77
2024/02/09 11:26:46;;;;;;;11.30;6.57;;;;;;;24.47;19.93;94147.75;5043947;28;20021;-78
2024/02/09 11:29:11;;;;;;;9.10;6.18;;;;;;;24.17;20.27;94153.78;5043944;28;20349;-78
2024/02/09 11:31:39;;;;;;;12.57;7.07;;;;;;;23.75;20.76;94150.13;5045842;28;20547;-77
2024/02/09 11:34:05;;;;;;;14.40;6.38;;;;;;;23.52;21.04;94142.16;5049341;28;20059;-77
2024/02/09 11:36:30;;;;;;;15.65;7.05;;;;;;;23.23;21.55;94144.00;5047254;28;20116;-78
2024/02/09 11:38:57;;;;;;;12.98;6.95;;;;;;;22.91;21.76;94144.09;5031495;28;20112;-78
2024/02/09 11:41:25;;;;;;;16.33;8.32;;;;;;;22.51;22.58;94144.00;5047200;28;20029;-78
2024/02/09 11:43:50;;;;;;;18.27;8.38;;;;;;;22.29;22.72;94147.16;5047434;28;20029;-79
2024/02/09 11:46:19;;;;;;;19.13;7.68;;;;;;;22.08;22.69;94137.78;5030508;28;20114;-78
2024/02/09 11:48:45;;;;;;;12.23;7.35;;;;;;;21.90;23.14;94142.09;5047202;28;20407;-79
2024/02/09 11:51:10;;;;;;;13.90;7.07;;;;;;;21.39;23.82;94122.44;5047746;28;20057;-78
2024/02/09 11:53:37;;;;;;;13.02;7.70;;;;;;;21.18;24.09;94139.72;5048293;28;20511;-79
2024/02/09 11:56:04;;;;;;;13.30;6.75;;;;;;;20.52;24.62;94138.34;5048959;28;20032;-79
2024/02/09 11:58:29;;;;;;;14.98;7.15;;;;;;;20.45;24.66;94130.53;5048671;28;20081;-78
2024/02/09 12:00:57;;;;;;;17.48;8.02;;;;;;;21.46;23.97;94128.22;5048627;28;20025;-78
2024/02/09 12:03:22;;;;;;;17.85;9.27;;;;;;;23.03;22.15;94134.19;5047322;28;20033;-79
2024/02/09 12:05:50;;;;;;;22.92;8.30;;;;;;;22.37;22.86;94128.47;5047150;28;20021;-78
2024/02/09 12:08:19;;;;;;;14.10;6.95;;;;;;;21.34;23.08;94118.47;5047510;28;20185;-77
2024/02/09 12:10:45;;;;;;;10.93;6.40;;;;;;;20.98;23.51;94115.03;5046508;28;20404;-78
2024/02/09 12:13:11;;;;;;;16.13;6.38;;;;;;;21.05;23.56;94103.28;5049106;28;20024;-77
2024/02/09 12:15:36;;;;;;;14.13;7.00;;;;;;;21.15;23.65;94109.25;5046531;28;20029;-79
2024/02/09 12:18:02;;;;;;;8.38;5.25;;;;;;;21.28;23.52;94119.78;5046912;28;20460;-79
2024/02/09 12:20:28;;;;;;;13.25;4.45;;;;;;;21.00;23.04;94106.91;5047915;28;20025;-78
2024/02/09 12:22:54;;;;;;;7.55;3.67;;;;;;;21.03;22.99;94116.25;5046895;28;20202;-77
2024/02/09 12:25:19;;;;;;;10.27;3.15;;;;;;;21.00;22.60;94117.31;5030122;28;20051;-79
2024/02/09 12:27:46;;;;;;;8.35;2.80;;;;;;;20.24;23.37;94108.63;5047618;28;20391;-77
2024/02/09 12:30:12;;;;;;;8.38;3.33;;;;;;;20.38;23.50;94099.13;5048731;28;20060;-76
2024/02/09 12:32:37;;;;;;;10.55;3.50;;;;;;;20.30;23.45;94100.97;5047586;28;20480;-78
2024/02/09 12:35:03;;;;;;;6.60;3.72;;;;;;;20.48;23.59;94110.75;5046736;28;20067;-79
2024/02/09 12:37:29;;;;;;;9.82;3.80;;;;;;;20.45;23.60;94105.41;5047595;28;20025;-79
2024/02/09 12:39:54;;;;;;;9.48;3.97;;;;;;;20.51;23.45;94101.31;5046496;28;20028;-79
2024/02/09 12:42:31;;;;;;;6.75;3.80;;;;;;;20.56;23.61;94105.31;5046122;28;20037;-77
2024/02/09 12:44:57;;;;;;;12.25;6.00;;;;;;;20.58;24.45;94108.34;5046592;28;20067;-78
2024/02/09 12:47:23;;;;;;;14.95;6.82;;;;;;;20.60;24.21;94091.84;5047201;28;20037;-78
2024/02/09 12:49:50;;;;;;;10.73;5.32;;;;;;;20.42;24.31;94088.44;5046867;28;20045;-78
2024/02/09 12:52:15;;;;;;;11.10;4.97;;;;;;;20.19;24.48;94095.50;5046736;28;20104;-78
2024/02/09 12:54:42;;;;;;;10.13;5.10;;;;;;;20.27;24.78;94093.63;5045718;28;20530;-78
2024/02/09 12:57:08;;;;;;;8.05;4.85;;;;;;;20.37;24.47;94088.47;5046187;28;20037;-78
2024/02/09 12:59:34;;;;;;;13.82;4.63;;;;;;;20.32;24.03;94095.63;5047504;28;20021;-79
2024/02/09 13:02:07;;;;;;;9.45;4.50;;;;;;;20.32;24.36;94100.44;5046032;28;20029;-78
2024/02/09 13:04:33;;;;;;;10.65;5.28;;;;;;;20.45;24.25;94100.56;5047979;28;20072;-79
2024/02/09 13:06:59;;;;;;;13.80;4.95;;;;;;;20.53;24.32;94107.13;5045244;28;20028;-78
2024/02/09 13:09:26;;;;;;;10.75;5.07;;;;;;;20.38;24.31;94103.94;5046584;28;20025;-79